createdAt,value
2023-04-30T00:02:15.344Z,13.60
2023-04-30T00:06:28.271Z,13.70
2023-04-30T00:10:41.010Z,13.60
2023-04-30T00:14:53.425Z,13.60
2023-04-30T00:19:03.832Z,13.50
2023-04-30T00:23:13.852Z,13.60
2023-04-30T00:27:25.522Z,13.60
2023-04-30T00:31:36.123Z,13.60
2023-04-30T00:35:46.579Z,13.60
2023-04-30T00:39:57.222Z,13.70
2023-04-30T00:44:09.954Z,13.70
2023-04-30T00:48:21.207Z,13.60
2023-04-30T00:52:32.067Z,13.60
2023-04-30T00:56:43.713Z,13.60
2023-04-30T01:00:56.606Z,13.60
2023-04-30T01:05:08.026Z,13.60
2023-04-30T01:09:18.747Z,13.50
2023-04-30T01:13:34.877Z,13.50
2023-04-30T01:17:52.538Z,13.50
2023-04-30T01:22:06.556Z,13.50
2023-04-30T01:26:24.424Z,13.40
2023-04-30T01:30:38.103Z,13.40
2023-04-30T01:34:49.232Z,13.40
2023-04-30T01:39:15.833Z,13.40
2023-04-30T01:43:37.915Z,13.30
2023-04-30T01:47:56.790Z,13.30
2023-04-30T01:52:16.560Z,13.30
2023-04-30T01:56:34.783Z,13.40
2023-04-30T02:00:45.587Z,13.30
2023-04-30T02:04:58.133Z,13.30
2023-04-30T02:09:08.057Z,13.30
2023-04-30T02:13:17.812Z,13.30
2023-04-30T02:17:26.859Z,13.20
2023-04-30T02:21:37.481Z,13.20
2023-04-30T02:25:46.706Z,13.20
2023-04-30T02:29:56.826Z,13.10
2023-04-30T02:34:06.176Z,13.10
2023-04-30T02:38:16.781Z,13.00
2023-04-30T02:42:25.860Z,13.00
2023-04-30T02:46:35.346Z,12.90
2023-04-30T02:50:44.391Z,12.90
2023-04-30T02:54:55.192Z,12.90
2023-04-30T02:59:04.287Z,12.90
2023-04-30T03:03:13.784Z,12.90
2023-04-30T03:07:23.042Z,12.90
2023-04-30T03:11:37.980Z,12.90
2023-04-30T03:15:47.469Z,13.00
2023-04-30T03:19:56.951Z,13.10
2023-04-30T03:24:06.655Z,13.20
2023-04-30T03:28:17.333Z,13.10
2023-04-30T03:32:26.783Z,13.10
2023-04-30T03:36:36.389Z,13.10
2023-04-30T03:40:45.432Z,13.20
2023-04-30T03:44:56.101Z,13.20
2023-04-30T03:49:05.297Z,13.20
2023-04-30T03:53:14.382Z,13.20
2023-04-30T03:57:23.902Z,13.10
2023-04-30T04:01:34.624Z,13.10
2023-04-30T04:05:43.711Z,13.10
2023-04-30T04:09:53.333Z,13.10
2023-04-30T04:14:02.573Z,13.20
2023-04-30T04:18:14.213Z,13.20
2023-04-30T04:22:23.254Z,13.20
2023-04-30T04:26:32.331Z,13.20
2023-04-30T04:30:41.406Z,13.20
2023-04-30T04:34:57.372Z,13.20
2023-04-30T04:39:06.507Z,13.20
2023-04-30T04:43:15.598Z,13.30
2023-04-30T04:47:24.880Z,13.20
2023-04-30T04:51:37.397Z,13.20
2023-04-30T04:55:46.531Z,13.20
2023-04-30T04:59:56.210Z,13.20
2023-04-30T05:04:05.466Z,13.20
2023-04-30T05:08:16.719Z,13.20
2023-04-30T05:12:25.805Z,13.20
2023-04-30T05:16:35.309Z,13.20
2023-04-30T05:20:44.447Z,13.30
2023-04-30T05:24:55.020Z,13.30
2023-04-30T05:29:04.467Z,13.30
2023-04-30T05:33:13.625Z,13.30
2023-04-30T05:37:23.056Z,13.30
2023-04-30T05:41:33.662Z,13.40
2023-04-30T05:45:42.755Z,13.40
2023-04-30T05:49:51.984Z,13.30
2023-04-30T05:54:01.225Z,13.30
2023-04-30T05:58:15.442Z,13.30
2023-04-30T06:02:24.605Z,13.30
2023-04-30T06:06:34.126Z,13.30
2023-04-30T06:10:43.705Z,13.40
2023-04-30T06:14:54.360Z,13.50
2023-04-30T06:19:07.300Z,13.60
2023-04-30T06:23:17.658Z,13.60
2023-04-30T06:27:30.083Z,13.70
2023-04-30T06:31:45.075Z,13.80
2023-04-30T06:35:56.931Z,13.70
2023-04-30T06:40:08.951Z,13.70
2023-04-30T06:44:22.079Z,13.80
2023-04-30T06:48:41.788Z,13.80
2023-04-30T06:52:52.917Z,13.80
2023-04-30T06:57:04.625Z,13.80
2023-04-30T07:01:15.713Z,13.90
2023-04-30T07:05:33.140Z,13.90
2023-04-30T07:09:44.019Z,13.90
2023-04-30T07:13:55.372Z,14.00
2023-04-30T07:18:10.271Z,14.10
2023-04-30T07:22:22.558Z,14.10
2023-04-30T07:26:44.012Z,14.20
2023-04-30T07:30:57.903Z,14.20
2023-04-30T07:35:17.142Z,14.20
2023-04-30T07:39:30.200Z,14.20
2023-04-30T07:43:41.588Z,14.20
2023-04-30T07:48:01.847Z,14.30
2023-04-30T07:52:14.241Z,14.40
2023-04-30T07:56:27.395Z,14.50
2023-04-30T08:00:38.928Z,14.40
2023-04-30T08:04:51.825Z,14.50
2023-04-30T08:09:01.785Z,14.40
2023-04-30T08:13:12.823Z,14.30
2023-04-30T08:17:23.799Z,14.30
2023-04-30T08:21:34.911Z,14.30
2023-04-30T08:25:44.093Z,14.40
2023-04-30T08:29:55.080Z,14.50
2023-04-30T08:34:08.698Z,14.60
2023-04-30T08:38:19.787Z,14.80
2023-04-30T08:42:38.213Z,14.90
2023-04-30T08:46:50.745Z,14.90
2023-04-30T08:51:04.400Z,14.80
2023-04-30T08:55:16.091Z,14.80
2023-04-30T08:59:31.136Z,14.70
2023-04-30T09:03:42.033Z,14.70
2023-04-30T09:08:03.705Z,14.80
2023-04-30T09:12:38.015Z,14.80
2023-04-30T09:17:11.179Z,14.80
2023-04-30T09:21:36.451Z,15.00
2023-04-30T09:26:01.855Z,15.20
2023-04-30T09:30:32.029Z,15.30
2023-04-30T09:34:41.977Z,15.50
2023-04-30T09:38:57.890Z,15.70
2023-04-30T09:43:36.045Z,15.70
2023-04-30T09:47:43.261Z,15.80
2023-04-30T09:52:16.214Z,16.00
2023-04-30T09:56:30.488Z,16.10
2023-04-30T10:00:41.794Z,16.40
2023-04-30T10:04:55.935Z,16.60
2023-04-30T10:09:09.925Z,16.70
2023-04-30T10:13:23.514Z,16.90
2023-04-30T10:17:42.719Z,16.90
2023-04-30T10:21:56.380Z,17.00
2023-04-30T10:26:10.940Z,16.90
2023-04-30T10:30:25.622Z,16.90
2023-04-30T10:34:46.937Z,16.90
2023-04-30T10:38:57.310Z,16.80
2023-04-30T10:43:06.480Z,16.80
2023-04-30T10:47:21.593Z,16.90
2023-04-30T10:51:49.248Z,17.10
2023-04-30T10:56:00.919Z,17.20
2023-04-30T11:00:26.886Z,17.30
2023-04-30T11:05:13.905Z,17.60
2023-04-30T11:09:37.031Z,17.70
2023-04-30T11:13:48.976Z,17.50
2023-04-30T11:18:01.946Z,17.40
2023-04-30T11:22:36.437Z,17.70
2023-04-30T11:27:09.225Z,18.40
2023-04-30T11:31:20.231Z,18.80
2023-04-30T11:35:31.464Z,18.80
2023-04-30T11:39:43.484Z,18.70
2023-04-30T11:43:56.445Z,18.70
2023-04-30T11:48:12.053Z,18.90
2023-04-30T11:52:29.686Z,19.40
2023-04-30T11:56:49.166Z,19.40
2023-04-30T12:01:06.660Z,19.30
2023-04-30T12:05:17.427Z,19.00
2023-04-30T12:09:26.598Z,18.80
2023-04-30T12:13:51.514Z,18.70
2023-04-30T12:18:02.817Z,18.30
2023-04-30T12:22:15.379Z,18.10
2023-04-30T12:26:25.035Z,18.30
2023-04-30T12:30:35.922Z,18.40
2023-04-30T12:34:53.546Z,18.80
2023-04-30T12:39:16.057Z,19.00
2023-04-30T12:43:28.986Z,19.50
2023-04-30T12:47:48.359Z,19.90
2023-04-30T12:52:02.559Z,20.00
2023-04-30T12:56:17.885Z,19.60
2023-04-30T13:00:29.042Z,19.60
2023-04-30T13:04:40.774Z,19.30
2023-04-30T13:08:58.639Z,19.40
2023-04-30T13:13:11.053Z,19.90
2023-04-30T13:21:59.198Z,20.10
2023-04-30T13:26:09.644Z,20.20
2023-04-30T13:30:23.518Z,20.50
2023-04-30T13:34:34.413Z,20.70
2023-04-30T13:38:45.105Z,20.50
2023-04-30T13:42:54.391Z,20.30
2023-04-30T13:47:03.930Z,20.20
2023-04-30T13:51:14.371Z,20.20
2023-04-30T13:55:28.204Z,20.40
2023-04-30T13:59:40.301Z,20.10
2023-04-30T14:03:53.677Z,19.80
2023-04-30T14:08:04.328Z,19.70
2023-04-30T14:12:17.375Z,19.50
2023-04-30T14:16:29.242Z,19.40
2023-04-30T14:20:48.000Z,19.10
2023-04-30T14:24:57.417Z,19.20
2023-04-30T14:29:11.716Z,19.30
2023-04-30T14:33:23.818Z,19.30
2023-04-30T14:37:34.771Z,19.30
2023-04-30T14:41:50.257Z,19.40
2023-04-30T14:46:04.284Z,19.30
2023-04-30T14:50:25.004Z,19.40
2023-04-30T14:54:34.464Z,19.30
2023-04-30T14:58:43.687Z,19.30
2023-04-30T15:02:54.742Z,19.30
2023-04-30T15:07:05.833Z,19.40
2023-04-30T15:11:15.219Z,19.60
2023-04-30T15:15:28.163Z,19.70
2023-04-30T15:19:39.929Z,19.80
2023-04-30T15:23:50.916Z,19.90
2023-04-30T15:28:00.300Z,19.90
2023-04-30T15:32:11.296Z,19.80
2023-04-30T15:36:31.383Z,19.80
2023-04-30T15:40:40.428Z,19.70
2023-04-30T15:44:49.820Z,19.70
2023-04-30T15:48:58.923Z,19.70
2023-04-30T15:53:15.627Z,19.60
2023-04-30T15:57:25.053Z,19.50
2023-04-30T16:01:34.530Z,19.50
2023-04-30T16:05:46.090Z,19.60
2023-04-30T16:09:57.061Z,19.60
2023-04-30T16:14:06.804Z,19.60
2023-04-30T16:18:17.149Z,19.50
2023-04-30T16:22:34.400Z,19.40
2023-04-30T16:26:50.540Z,19.30
2023-04-30T16:31:01.764Z,19.30
2023-04-30T16:35:11.778Z,19.30
2023-04-30T16:39:25.071Z,19.20
2023-04-30T16:43:39.506Z,19.30
2023-04-30T16:47:49.826Z,19.30
2023-04-30T16:51:59.473Z,19.30
2023-04-30T16:56:12.794Z,19.30
2023-04-30T17:00:27.659Z,19.30
2023-04-30T17:04:37.881Z,19.30
2023-04-30T17:08:49.573Z,19.40
2023-04-30T17:13:00.396Z,19.10
2023-04-30T17:17:14.161Z,19.10
2023-04-30T17:21:26.299Z,19.10
2023-04-30T17:25:38.348Z,19.10
2023-04-30T17:29:48.555Z,19.00
2023-04-30T17:34:00.928Z,18.80
2023-04-30T17:38:12.985Z,18.80
2023-04-30T17:42:32.144Z,18.80
2023-04-30T17:46:50.247Z,18.70
2023-04-30T17:51:03.406Z,18.70
2023-04-30T17:55:18.945Z,18.50
2023-04-30T17:59:39.359Z,18.30
2023-04-30T18:04:04.172Z,18.30
2023-04-30T18:09:03.095Z,18.30
2023-04-30T18:13:33.806Z,18.40
2023-04-30T18:17:55.787Z,18.40
2023-04-30T18:22:09.029Z,18.30
2023-04-30T18:26:44.386Z,18.10
2023-04-30T18:31:01.972Z,17.90
2023-04-30T18:35:19.360Z,17.50
2023-04-30T18:39:35.650Z,17.20
2023-04-30T18:43:55.092Z,17.00
2023-04-30T18:48:16.555Z,16.80
2023-04-30T18:52:31.816Z,16.60
2023-04-30T18:56:44.146Z,16.40
2023-04-30T19:01:02.819Z,16.30
2023-04-30T19:05:18.469Z,16.10
2023-04-30T19:09:29.590Z,15.80
2023-04-30T19:13:58.008Z,15.80
2023-04-30T19:18:14.703Z,15.50
2023-04-30T19:22:25.605Z,15.30
2023-04-30T19:26:42.466Z,15.10
2023-04-30T19:30:59.556Z,14.90
2023-04-30T19:35:12.641Z,14.80
2023-04-30T19:39:23.714Z,14.70
2023-04-30T19:43:34.719Z,14.60
2023-04-30T19:47:46.002Z,14.40
2023-04-30T19:51:58.409Z,14.30
2023-04-30T19:56:09.695Z,14.00
2023-04-30T20:00:20.559Z,13.90
2023-04-30T20:04:31.751Z,13.90
2023-04-30T20:09:37.801Z,13.80
2023-04-30T20:13:51.954Z,13.70
2023-04-30T20:18:03.262Z,13.60
2023-04-30T20:22:15.671Z,13.60
2023-04-30T20:26:26.912Z,13.40
2023-04-30T20:30:39.691Z,13.30
2023-04-30T20:34:50.089Z,13.30
2023-04-30T20:39:00.883Z,13.30
2023-04-30T20:43:11.959Z,13.20
2023-04-30T20:47:23.982Z,13.20
2023-04-30T20:51:34.744Z,13.10
2023-04-30T20:55:45.275Z,13.00
2023-04-30T20:59:55.844Z,13.00
2023-04-30T21:04:08.966Z,13.00
2023-04-30T21:08:19.544Z,13.10
2023-04-30T21:12:30.672Z,13.10
2023-04-30T21:16:41.539Z,13.20
2023-04-30T21:20:53.689Z,13.20
2023-04-30T21:25:04.546Z,13.20
2023-04-30T21:29:15.393Z,13.20
2023-04-30T21:33:25.841Z,13.20
2023-04-30T21:37:38.290Z,13.20
2023-04-30T21:41:48.934Z,13.10
2023-04-30T21:46:05.455Z,13.10
2023-04-30T21:50:16.536Z,13.00
2023-04-30T21:54:28.880Z,13.00
2023-04-30T21:58:39.508Z,13.00
2023-04-30T22:02:51.739Z,13.00
2023-04-30T22:07:02.207Z,13.00
2023-04-30T22:11:14.021Z,13.00
2023-04-30T22:15:29.211Z,13.00
2023-04-30T22:19:42.474Z,13.00
2023-04-30T22:23:53.844Z,13.00
2023-04-30T22:28:06.217Z,13.00
2023-04-30T22:32:16.838Z,13.00
2023-04-30T22:36:28.181Z,12.90
2023-04-30T22:40:42.977Z,12.80
2023-04-30T22:44:55.633Z,12.80
2023-04-30T22:49:07.590Z,12.70
2023-04-30T22:53:19.900Z,12.60
2023-04-30T22:57:32.624Z,12.70
2023-04-30T23:01:45.298Z,12.70
2023-04-30T23:05:58.442Z,12.70
2023-04-30T23:10:10.183Z,12.70
2023-04-30T23:14:22.079Z,12.70
2023-04-30T23:18:35.202Z,12.70
2023-04-30T23:22:46.419Z,12.70
2023-04-30T23:26:59.139Z,12.80
2023-04-30T23:31:12.566Z,12.80
2023-04-30T23:35:25.675Z,12.80
2023-04-30T23:39:36.707Z,12.90
2023-04-30T23:43:47.768Z,12.90
2023-04-30T23:47:58.374Z,12.90
2023-04-30T23:52:10.694Z,12.80
2023-04-30T23:56:21.265Z,12.70
